Time;durP1;ratioP1;P1;durP2;ratioP2;P2;SDS_P1;SDS_P2;PMS_P1;PMS_P2;Temp;Humidity;BMP_temperature;BMP_pressure;BME280_temperature;BME280_humidity;BME280_pressure;Samples;Min_cycle;Max_cycle;Signal;HPM_P1;HPM_P2
2022/10/09 00:01:18;;;;;;;;;;;;;;;-144.99;100.00;52415.47;5077802;28;19940;-71
2022/10/09 00:03:45;;;;;;;;;;;;;;;-144.99;100.00;52378.78;5079941;28;19928;-71
2022/10/09 00:06:14;;;;;;;;;;;;;;;-144.99;100.00;52391.03;5078482;28;19928;-71
2022/10/09 00:08:42;;;;;;;;;;;;;;;-144.99;100.00;52413.44;5078416;28;19936;-71
2022/10/09 00:11:10;;;;;;;;;;;;;;;-144.99;100.00;52403.25;5075213;28;19929;-72
2022/10/09 00:13:36;;;;;;;;;;;;;;;-144.99;100.00;52362.50;5071952;28;19933;-72
2022/10/09 00:16:03;;;;;;;;;;;;;;;-144.99;100.00;52378.78;5072265;28;19928;-70
2022/10/09 00:18:29;;;;;;;;;;;;;;;-144.99;100.00;52366.56;5077590;28;19951;-70
2022/10/09 00:20:56;;;;;;;;;;;;;;;-144.99;100.00;52431.78;5076056;28;19943;-71
2022/10/09 00:23:23;;;;;;;;;;;;;;;-144.99;100.00;52395.09;5075913;28;20418;-71
2022/10/09 00:25:50;;;;;;;;;;;;;;;-144.99;100.00;52391.03;5076840;28;19928;-71
2022/10/09 00:28:16;;;;;;;;;;;;;;;-144.99;100.00;52395.09;5078144;28;19924;-71
2022/10/09 00:30:43;;;;;;;;;;;;;;;-144.99;100.00;52403.25;5079121;28;19928;-71
2022/10/09 00:33:09;;;;;;;;;;;;;;;-144.99;100.00;52391.03;5069053;28;19931;-72
2022/10/09 00:35:37;;;;;;;;;;;;;;;-144.99;100.00;52380.84;5073133;28;19924;-72
2022/10/09 00:38:04;;;;;;;;;;;;;;;-144.99;100.00;52407.31;5085146;28;19924;-71
2022/10/09 00:40:31;;;;;;;;;;;;;;;-144.99;100.00;52378.78;5082910;28;19938;-71
2022/10/09 00:42:58;;;;;;;;;;;;;;;-144.99;100.00;52378.78;5073421;28;19924;-71
2022/10/09 00:45:25;;;;;;;;;;;;;;;-144.99;100.00;52415.47;5079991;28;19940;-72
2022/10/09 00:47:52;;;;;;;;;;;;;;;-144.99;100.00;52395.09;5082218;28;19929;-71
2022/10/09 00:50:21;;;;;;;;;;;;;;;-144.99;100.00;52401.22;5078260;28;19939;-72
2022/10/09 00:52:50;;;;;;;;;;;;;;;-144.99;100.00;52391.03;5070401;28;19924;-71
2022/10/09 00:55:16;;;;;;;;;;;;;;;-144.99;100.00;52374.72;5066357;28;19925;-70
2022/10/09 00:57:44;;;;;;;;;;;;;;;-144.99;100.00;52391.03;5067696;28;19933;-70
2022/10/09 01:00:12;;;;;;;;;;;;;;;-144.99;100.00;52403.25;5074494;28;20406;-70
2022/10/09 01:02:38;;;;;;;;;;;;;;;-144.99;100.00;52368.59;5073956;28;19929;-70
2022/10/09 01:05:05;;;;;;;;;;;;;;;-144.99;100.00;52395.09;5087245;28;19929;-70
2022/10/09 01:07:37;;;;;;;;;;;;;;;-144.99;100.00;52382.88;5082394;28;20031;-69
2022/10/09 01:10:09;;;;;;;;;;;;;;;-144.99;100.00;52382.88;5069974;28;19937;-69
2022/10/09 01:12:39;;;;;;;;;;;;;;;-144.99;100.00;52366.56;5077198;28;19935;-69
2022/10/09 01:15:13;;;;;;;;;;;;;;;-144.99;100.00;52382.88;5074833;28;19935;-71
2022/10/09 01:17:42;;;;;;;;;;;;;;;-144.99;100.00;52399.19;5069630;28;19925;-75
2022/10/09 01:20:21;;;;;;;;;;;;;;;-144.99;100.00;52382.88;5082410;28;19944;-71
2022/10/09 01:22:55;;;;;;;;;;;;;;;-144.99;100.00;52358.41;5080471;28;20438;-70
2022/10/09 01:25:26;;;;;;;;;;;;;;;-144.99;100.00;52350.25;5079279;28;19931;-70
2022/10/09 01:27:54;;;;;;;;;;;;;;;-144.99;100.00;52403.25;5077962;28;19925;-73
2022/10/09 01:30:20;;;;;;;;;;;;;;;-144.99;100.00;52435.88;5085755;28;19929;-71
2022/10/09 01:32:49;;;;;;;;;;;;;;;-144.99;100.00;52386.94;5079579;28;19928;-71
2022/10/09 01:35:15;;;;;;;;;;;;;;;-144.99;100.00;52370.63;5082225;28;19928;-72
2022/10/09 01:37:43;;;;;;;;;;;;;;;-144.99;100.00;52382.88;5080697;28;19924;-71
2022/10/09 01:40:10;;;;;;;;;;;;;;;-144.99;100.00;52378.78;5084796;28;19928;-71
2022/10/09 01:42:37;;;;;;;;;;;;;;;-144.99;100.00;52403.25;4725446;22;10000553;-75
2022/10/09 01:45:05;;;;;;;;;;;;;;;-144.99;100.00;52370.63;5040308;28;19936;-76
2022/10/09 01:47:31;;;;;;;;;;;;;;;-144.99;100.00;52423.63;5041621;28;19925;-76
2022/10/09 01:50:01;;;;;;;;;;;;;;;-144.99;100.00;52374.72;5047235;28;19928;-74
2022/10/09 01:52:33;;;;;;;;;;;;;;;-144.99;100.00;52378.78;5042010;28;19924;-73
2022/10/09 01:55:17;;;;;;;;;;;;;;;-144.99;100.00;52411.41;5034963;28;19925;-70
2022/10/09 01:57:45;;;;;;;;;;;;;;;-144.99;100.00;52370.63;5047960;28;19929;-70
2022/10/09 02:00:13;;;;;;;;;;;;;;;-144.99;100.00;52395.09;5049267;28;19932;-73
2022/10/09 02:02:40;;;;;;;;;;;;;;;-144.99;100.00;52376.75;5048564;28;19940;-74
2022/10/09 02:05:08;;;;;;;;;;;;;;;-144.99;100.00;52415.47;5055597;28;19929;-75
2022/10/09 02:07:35;;;;;;;;;;;;;;;-144.99;100.00;52399.19;5051227;28;19933;-74
2022/10/09 02:10:02;;;;;;;;;;;;;;;-144.99;100.00;52378.78;5050804;28;19932;-75
2022/10/09 02:12:31;;;;;;;;;;;;;;;-144.99;100.00;52407.31;5062960;28;19916;-74
2022/10/09 02:14:58;;;;;;;;;;;;;;;-144.99;100.00;52382.88;5064652;28;20008;-74
2022/10/09 02:17:27;;;;;;;;;;;;;;;-144.99;100.00;52386.94;5063710;28;19933;-75
2022/10/09 02:19:56;;;;;;;;;;;;;;;-144.99;100.00;52417.53;5049638;28;19932;-75
2022/10/09 02:22:25;;;;;;;;;;;;;;;-144.99;100.00;52401.22;5046685;28;19932;-74
2022/10/09 02:24:52;;;;;;;;;;;;;;;-144.99;100.00;52401.22;5044764;28;19952;-74
2022/10/09 02:27:19;;;;;;;;;;;;;;;-144.99;100.00;52382.88;5049449;28;19978;-74
2022/10/09 02:29:46;;;;;;;;;;;;;;;-144.99;100.00;52358.41;5050232;28;19925;-74
2022/10/09 02:32:12;;;;;;;;;;;;;;;-144.99;100.00;52374.72;5040638;28;19933;-73
2022/10/09 02:34:40;;;;;;;;;;;;;;;-144.99;100.00;52378.78;5045820;28;19925;-74
2022/10/09 02:37:06;;;;;;;;;;;;;;;-144.99;100.00;52358.41;5046808;28;20454;-76
2022/10/09 02:39:33;;;;;;;;;;;;;;;-144.99;100.00;52407.31;5050961;28;19991;-76
2022/10/09 02:42:00;;;;;;;;;;;;;;;-144.99;100.00;52333.94;5052684;28;19936;-75
2022/10/09 02:44:26;;;;;;;;;;;;;;;-144.99;100.00;52378.78;5045871;28;19924;-75
2022/10/09 02:46:52;;;;;;;;;;;;;;;-144.99;100.00;52395.09;5039339;28;20314;-74
2022/10/09 02:49:19;;;;;;;;;;;;;;;-144.99;100.00;52407.31;5052912;28;20011;-74
2022/10/09 02:51:47;;;;;;;;;;;;;;;-144.99;100.00;52378.78;5050126;28;19924;-75
2022/10/09 02:54:13;;;;;;;;;;;;;;;-144.99;100.00;52407.31;5040765;28;19929;-75
2022/10/09 02:56:39;;;;;;;;;;;;;;;-144.99;100.00;52354.34;5050356;28;20389;-77
2022/10/09 02:59:06;;;;;;;;;;;;;;;-144.99;100.00;52374.72;5052782;28;20304;-75
2022/10/09 03:01:32;;;;;;;;;;;;;;;-144.99;100.00;52415.47;5052009;28;19928;-74
2022/10/09 03:03:59;;;;;;;;;;;;;;;-144.99;100.00;52429.75;5045970;28;19925;-75
2022/10/09 03:06:27;;;;;;;;;;;;;;;-144.99;100.00;52407.31;5049155;28;20264;-73
2022/10/09 03:08:55;;;;;;;;;;;;;;;-144.99;100.00;52386.94;5045280;28;19931;-73
2022/10/09 03:11:22;;;;;;;;;;;;;;;-144.99;100.00;52409.38;5051690;28;19929;-70
2022/10/09 03:13:49;;;;;;;;;;;;;;;-144.99;100.00;52423.63;5050300;28;19929;-71
2022/10/09 03:16:16;;;;;;;;;;;;;;;-144.99;100.00;52380.84;5038680;28;19947;-71
2022/10/09 03:18:43;;;;;;;;;;;;;;;-144.99;100.00;52415.47;5047960;28;19925;-71
2022/10/09 03:21:10;;;;;;;;;;;;;;;-144.99;100.00;52407.31;5051651;28;19924;-72
2022/10/09 03:23:37;;;;;;;;;;;;;;;-144.99;100.00;52399.19;5050826;28;19935;-73
2022/10/09 03:26:06;;;;;;;;;;;;;;;-144.99;100.00;52374.72;5051629;28;19925;-74
2022/10/09 03:28:35;;;;;;;;;;;;;;;-144.99;100.00;52358.41;5051963;28;19932;-73
2022/10/09 03:31:01;;;;;;;;;;;;;;;-144.99;100.00;52427.72;5051605;28;19940;-72
2022/10/09 03:33:27;;;;;;;;;;;;;;;-144.99;100.00;52384.91;5041684;28;20161;-74
2022/10/09 03:35:53;;;;;;;;;;;;;;;-144.99;100.00;52372.69;5045966;28;19943;-74
2022/10/09 03:38:20;;;;;;;;;;;;;;;-144.99;100.00;52391.03;5050897;28;19944;-75
2022/10/09 03:40:46;;;;;;;;;;;;;;;-144.99;100.00;52399.19;5034359;28;19925;-73
2022/10/09 03:43:14;;;;;;;;;;;;;;;-144.99;100.00;52397.13;5042484;28;19940;-74
2022/10/09 03:45:40;;;;;;;;;;;;;;;-144.99;100.00;52395.09;5050583;28;19925;-74
2022/10/09 03:48:07;;;;;;;;;;;;;;;-144.99;100.00;52391.03;5049255;28;19929;-74
2022/10/09 03:50:33;;;;;;;;;;;;;;;-144.99;100.00;52393.06;5051431;28;19925;-74
2022/10/09 03:52:59;;;;;;;;;;;;;;;-144.99;100.00;52431.78;5043484;28;19925;-74
2022/10/09 03:55:26;;;;;;;;;;;;;;;-144.99;100.00;52423.63;5048197;28;19932;-74
2022/10/09 03:57:52;;;;;;;;;;;;;;;-144.99;100.00;52370.63;5046761;28;19932;-75
2022/10/09 04:00:20;;;;;;;;;;;;;;;-144.99;100.00;52427.72;5046509;28;19935;-74
2022/10/09 04:02:46;;;;;;;;;;;;;;;-144.99;100.00;52427.72;5051548;28;19932;-74
2022/10/09 04:05:12;;;;;;;;;;;;;;;-144.99;100.00;52350.25;5057629;28;19925;-73
2022/10/09 04:07:39;;;;;;;;;;;;;;;-144.99;100.00;52407.31;5042537;28;19925;-73
2022/10/09 04:10:06;;;;;;;;;;;;;;;-144.99;100.00;52415.47;5050023;28;19931;-75
2022/10/09 04:12:32;;;;;;;;;;;;;;;-144.99;100.00;52427.72;5057054;28;19925;-74
2022/10/09 04:14:58;;;;;;;;;;;;;;;-144.99;100.00;52391.03;5057194;28;19929;-74
2022/10/09 04:17:26;;;;;;;;;;;;;;;-144.99;100.00;52407.31;5048633;28;19924;-73
2022/10/09 04:19:52;;;;;;;;;;;;;;;-144.99;100.00;52419.56;5048541;28;19929;-73
2022/10/09 04:22:19;;;;;;;;;;;;;;;-144.99;100.00;52421.59;5055408;28;19929;-73
2022/10/09 04:24:45;;;;;;;;;;;;;;;-144.99;100.00;52403.25;5055850;28;20404;-75
2022/10/09 04:27:11;;;;;;;;;;;;;;;-144.99;100.00;52421.59;5062407;28;19929;-73
2022/10/09 04:29:38;;;;;;;;;;;;;;;-144.99;100.00;52378.78;5051071;28;20454;-73
2022/10/09 04:32:04;;;;;;;;;;;;;;;-144.99;100.00;52370.63;5040947;28;20008;-74
2022/10/09 04:34:32;;;;;;;;;;;;;;;-144.99;100.00;52413.44;5043326;28;19935;-73
2022/10/09 04:36:59;;;;;;;;;;;;;;;-144.99;100.00;52391.03;5056551;28;20386;-73
2022/10/09 04:39:25;;;;;;;;;;;;;;;-144.99;100.00;52409.38;5048512;28;19932;-74
2022/10/09 04:41:52;;;;;;;;;;;;;;;-144.99;100.00;52407.31;5048275;28;19926;-74
2022/10/09 04:44:18;;;;;;;;;;;;;;;-144.99;100.00;52374.72;5055635;28;19929;-76
2022/10/09 04:46:44;;;;;;;;;;;;;;;-144.99;100.00;52407.31;5051376;28;19931;-73
2022/10/09 04:49:12;;;;;;;;;;;;;;;-144.99;100.00;52407.31;5045602;28;19928;-75
2022/10/09 04:51:39;;;;;;;;;;;;;;;-144.99;100.00;52407.31;5047357;28;20244;-74
2022/10/09 04:54:06;;;;;;;;;;;;;;;-144.99;100.00;52370.63;5045370;28;19932;-73
2022/10/09 04:56:32;;;;;;;;;;;;;;;-144.99;100.00;52362.50;5054345;28;19970;-74
2022/10/09 04:58:59;;;;;;;;;;;;;;;-144.99;100.00;52421.59;5050688;28;20403;-75
2022/10/09 05:01:26;;;;;;;;;;;;;;;-144.99;100.00;52386.94;5047664;28;20004;-77
2022/10/09 05:03:53;;;;;;;;;;;;;;;-144.99;100.00;52407.31;5056395;28;19928;-73
2022/10/09 05:06:20;;;;;;;;;;;;;;;-144.99;100.00;52419.56;5051357;28;19944;-72
2022/10/09 05:08:48;;;;;;;;;;;;;;;-144.99;100.00;52419.56;5045736;28;20052;-72
2022/10/09 05:11:15;;;;;;;;;;;;;;;-144.99;100.00;52419.56;5049373;28;19925;-73
2022/10/09 05:13:43;;;;;;;;;;;;;;;-144.99;100.00;52382.88;5050684;28;20156;-72
2022/10/09 05:16:11;;;;;;;;;;;;;;;-144.99;100.00;52427.72;5050631;28;19931;-72
2022/10/09 05:18:41;;;;;;;;;;;;;;;-144.99;100.00;52415.47;5041829;28;19933;-72
2022/10/09 05:21:08;;;;;;;;;;;;;;;-144.99;100.00;52399.19;5047907;28;19974;-71
2022/10/09 05:23:34;;;;;;;;;;;;;;;-144.99;100.00;52444.03;5051832;28;19936;-75
2022/10/09 05:26:04;;;;;;;;;;;;;;;-144.99;100.00;52427.72;5053070;28;19928;-75
2022/10/09 05:28:31;;;;;;;;;;;;;;;-144.99;100.00;52413.44;5055485;28;19929;-75
2022/10/09 05:30:57;;;;;;;;;;;;;;;-144.99;100.00;52456.25;5053335;28;19924;-75
2022/10/09 05:33:24;;;;;;;;;;;;;;;-144.99;100.00;52429.75;5054990;28;19925;-75
2022/10/09 05:35:51;;;;;;;;;;;;;;;-144.99;100.00;52427.72;5055448;28;19931;-74
2022/10/09 05:38:17;;;;;;;;;;;;;;;-144.99;100.00;52407.31;5059067;28;20435;-73
2022/10/09 05:40:50;;;;;;;;;;;;;;;-144.99;100.00;52435.88;5051092;28;19928;-75
2022/10/09 05:43:18;;;;;;;;;;;;;;;-144.99;100.00;52382.88;5050869;28;19929;-74
2022/10/09 05:45:45;;;;;;;;;;;;;;;-144.99;100.00;52423.63;5059900;28;19978;-74
2022/10/09 05:48:11;;;;;;;;;;;;;;;-144.99;100.00;52391.03;5058549;28;20303;-75
2022/10/09 05:50:37;;;;;;;;;;;;;;;-144.99;100.00;52427.72;5051985;28;19931;-76
2022/10/09 05:53:04;;;;;;;;;;;;;;;-144.99;100.00;52425.66;5044659;28;19925;-72
2022/10/09 05:55:30;;;;;;;;;;;;;;;-144.99;100.00;52429.75;5051398;28;20276;-70
2022/10/09 05:57:56;;;;;;;;;;;;;;;-144.99;100.00;52411.41;5055419;28;19932;-72
2022/10/09 06:00:24;;;;;;;;;;;;;;;-144.99;100.00;52427.72;5041580;28;19932;-73
2022/10/09 06:02:50;;;;;;;;;;;;;;;-144.99;100.00;52419.56;5043666;28;19925;-71
2022/10/09 06:05:17;;;;;;;;;;;;;;;-144.99;100.00;52423.63;5051351;28;19925;-76
2022/10/09 06:07:43;;;;;;;;;;;;;;;-144.99;100.00;52391.03;5053420;28;19982;-77
2022/10/09 06:10:10;;;;;;;;;;;;;;;-144.99;100.00;52435.88;5051377;28;20406;-77
2022/10/09 06:12:36;;;;;;;;;;;;;;;-144.99;100.00;52431.78;5045542;28;19951;-75
2022/10/09 06:15:02;;;;;;;;;;;;;;;-144.99;100.00;52403.25;5042402;28;19925;-76
2022/10/09 06:17:30;;;;;;;;;;;;;;;-144.99;100.00;52391.03;5054732;28;19936;-75
2022/10/09 06:19:56;;;;;;;;;;;;;;;-144.99;100.00;52415.47;5056880;28;19925;-77
2022/10/09 06:22:23;;;;;;;;;;;;;;;-144.99;100.00;52448.09;5052897;28;19924;-77
2022/10/09 06:24:49;;;;;;;;;;;;;;;-144.99;100.00;52421.59;5034798;28;20153;-76
2022/10/09 06:27:16;;;;;;;;;;;;;;;-144.99;100.00;52401.22;5056790;28;19925;-76
2022/10/09 06:29:42;;;;;;;;;;;;;;;-144.99;100.00;52415.47;5056429;28;19931;-77
2022/10/09 06:32:09;;;;;;;;;;;;;;;-144.99;100.00;52382.88;5045100;28;19929;-75
2022/10/09 06:34:36;;;;;;;;;;;;;;;-144.99;100.00;52378.78;5055549;28;19967;-74
2022/10/09 06:37:03;;;;;;;;;;;;;;;-144.99;100.00;52439.94;5055764;28;19925;-73
2022/10/09 06:39:29;;;;;;;;;;;;;;;-144.99;100.00;52374.72;5041649;28;19925;-73
2022/10/09 06:41:55;;;;;;;;;;;;;;;-144.99;100.00;52415.47;5052196;28;19924;-72
2022/10/09 06:44:22;;;;;;;;;;;;;;;-144.99;100.00;52374.72;5048424;28;19929;-72
2022/10/09 06:46:49;;;;;;;;;;;;;;;-144.99;100.00;52346.19;5054479;28;20315;-73
2022/10/09 06:49:15;;;;;;;;;;;;;;;-144.99;100.00;52421.59;5054272;28;19925;-72
2022/10/09 06:51:43;;;;;;;;;;;;;;;-144.99;100.00;52350.25;5052182;28;19925;-74
2022/10/09 06:54:11;;;;;;;;;;;;;;;-144.99;100.00;52370.63;5042442;28;19929;-73
2022/10/09 06:56:37;;;;;;;;;;;;;;;-144.99;100.00;52366.56;5053529;28;19936;-72
2022/10/09 06:59:04;;;;;;;;;;;;;;;-144.99;100.00;52370.63;5054061;28;19931;-72
2022/10/09 07:01:30;;;;;;;;;;;;;;;-144.99;100.00;52391.03;5051848;28;19936;-73
2022/10/09 07:03:58;;;;;;;;;;;;;;;-144.99;100.00;52372.69;5056159;28;19970;-73
2022/10/09 07:06:25;;;;;;;;;;;;;;;-144.99;100.00;52374.72;5054995;28;19925;-72
2022/10/09 07:08:54;;;;;;;;;;;;;;;-144.99;100.00;52399.19;5053040;28;19929;-72
2022/10/09 07:11:21;;;;;;;;;;;;;;;-144.99;100.00;52382.88;5053404;28;19947;-73
2022/10/09 07:13:48;;;;;;;;;;;;;;;-144.99;100.00;52374.72;5047275;28;20418;-73
2022/10/09 07:16:18;;;;;;;;;;;;;;;-144.99;100.00;52370.63;5039750;28;19932;-73
2022/10/09 07:18:44;;;;;;;;;;;;;;;-144.99;100.00;52358.41;5052138;28;19924;-72
2022/10/09 07:21:11;;;;;;;;;;;;;;;-144.99;100.00;52366.56;5053245;28;19936;-74
2022/10/09 07:23:37;;;;;;;;;;;;;;;-144.99;100.00;52354.34;5050585;28;19932;-72
2022/10/09 07:26:10;;;;;;;;;;;;;;;-144.99;100.00;52370.63;5047728;28;19925;-73
2022/10/09 07:28:36;;;;;;;;;;;;;;;-144.99;100.00;52340.06;5043362;28;20403;-72
2022/10/09 07:31:03;;;;;;;;;;;;;;;-144.99;100.00;52350.25;5051853;28;19925;-72
2022/10/09 07:33:30;;;;;;;;;;;;;;;-144.99;99.12;52313.56;5042357;28;19929;-72
2022/10/09 07:35:56;;;;;;;;;;;;;;;-144.99;98.13;52358.41;5046413;28;19932;-72
2022/10/09 07:38:24;;;;;;;;;;;;;;;-144.99;97.63;52336.00;5051842;28;19925;-72
2022/10/09 07:40:50;;;;;;;;;;;;;;;-144.99;98.21;52301.34;5051640;28;20423;-72
2022/10/09 07:43:18;;;;;;;;;;;;;;;-144.99;97.41;52331.91;5091159;22;19940;-78
2022/10/09 07:45:44;;;;;;;;;;;;;;;-144.99;96.98;52358.41;5058763;28;19940;-83
2022/10/09 07:48:11;;;;;;;;;;;;;;;-144.99;94.95;52342.09;5086674;28;19923;-81
2022/10/09 07:50:37;;;;;;;;;;;;;;;-144.99;93.47;52333.94;5074698;28;19925;-78
2022/10/09 07:53:04;;;;;;;;;;;;;;;-144.99;91.40;52333.94;5045634;28;19929;-81
2022/10/09 07:55:30;;;;;;;;;;;;;;;-144.99;90.70;52376.75;5046693;28;19932;-78
2022/10/09 07:57:56;;;;;;;;;;;;;;;-144.99;91.33;52346.19;5064756;28;19931;-78
2022/10/09 08:00:24;;;;;;;;;;;;;;;-144.99;89.46;52362.50;5055551;28;19931;-78
2022/10/09 08:02:51;;;;;;;;;;;;;;;-144.99;89.88;52342.09;5071417;28;19924;-80
2022/10/09 08:05:17;;;;;;;;;;;;;;;-144.99;90.07;52305.41;5046128;28;19924;-78
2022/10/09 08:07:43;;;;;;;;;;;;;;;-144.99;84.36;52317.66;5054116;28;19959;-76
2022/10/09 08:10:10;;;;;;;;;;;;;;;-144.99;83.22;52338.03;5052508;28;20264;-78
2022/10/09 08:12:36;;;;;;;;;;;;;;;-144.99;81.59;52329.88;5058093;28;19925;-77
2022/10/09 08:15:02;;;;;;;;;;;;;;;-144.99;79.93;52329.88;5055345;28;19925;-80
2022/10/09 08:17:30;;;;;;;;;;;;;;;-144.99;77.89;52293.19;5060462;28;19932;-79
2022/10/09 08:19:57;;;;;;;;;;;;;;;-144.99;77.71;52317.66;5059247;28;19932;-80
2022/10/09 08:22:23;;;;;;;;;;;;;;;-144.99;75.58;52293.19;5061917;28;19928;-79
2022/10/09 08:24:50;;;;;;;;;;;;;;;-144.99;74.28;52287.06;5056376;28;19925;-77
2022/10/09 08:27:16;;;;;;;;;;;;;;;-144.99;73.21;52289.13;5061559;28;19933;-78
2022/10/09 08:29:42;;;;;;;;;;;;;;;-144.99;72.66;52287.06;5059356;28;20392;-79
2022/10/09 08:32:09;;;;;;;;;;;;;;;-144.99;72.68;52293.19;5067435;28;20307;-78
2022/10/09 08:34:36;;;;;;;;;;;;;;;-144.99;73.71;52264.66;5061416;28;19955;-79
2022/10/09 08:37:03;;;;;;;;;;;;;;;-144.99;73.80;52313.56;5048883;28;19929;-80
2022/10/09 08:39:31;;;;;;;;;;;;;;;-144.99;73.81;52317.66;5061758;28;20182;-78
2022/10/09 08:42:00;;;;;;;;;;;;;;;-144.99;70.55;52309.50;5083286;28;19968;-82
2022/10/09 08:44:29;;;;;;;;;;;;;;;-144.99;66.64;52260.56;5080864;28;19923;-82
2022/10/09 08:47:03;;;;;;;;;;;;;;;-144.99;66.64;52289.13;5066666;28;20326;-78
2022/10/09 08:49:32;;;;;;;;;;;;;;;-144.99;65.83;52278.91;5060892;28;19925;-78
2022/10/09 08:52:02;;;;;;;;;;;;;;;-144.99;65.16;52264.66;5055961;28;19925;-78
2022/10/09 08:54:31;;;;;;;;;;;;;;;-144.99;64.01;52289.13;5057075;28;19924;-77
2022/10/09 08:57:00;;;;;;;;;;;;;;;-144.99;64.01;52289.13;5050232;28;19925;-81
2022/10/09 08:59:27;;;;;;;;;;;;;;;-144.99;61.52;52232.03;5055068;28;20015;-78
2022/10/09 09:01:57;;;;;;;;;;;;;;;-144.99;61.47;52236.13;5059784;28;19944;-79
2022/10/09 09:04:38;;;;;;;;;;;;;;;-144.99;62.20;52256.50;5063403;28;19925;-81
2022/10/09 09:07:11;;;;;;;;;;;;;;;-144.99;62.19;52278.91;5052633;28;19954;-80
2022/10/09 09:09:42;;;;;;;;;;;;;;;-144.99;60.00;52201.47;5051682;28;20414;-81
2022/10/09 09:12:12;;;;;;;;;;;;;;;-144.99;56.32;52240.19;5061114;28;19928;-79
2022/10/09 09:14:42;;;;;;;;;;;;;;;-144.99;54.57;52203.50;5055659;28;19928;-80
2022/10/09 09:17:12;;;;;;;;;;;;;;;-144.99;54.75;52215.75;5053034;28;20543;-80
2022/10/09 09:19:55;;;;;;;;;;;;;;;-144.99;53.70;52201.47;5058982;28;20370;-80
2022/10/09 09:22:23;;;;;;;;;;;;;;;-144.99;52.83;52195.34;5057375;28;20063;-80
2022/10/09 09:24:51;;;;;;;;;;;;;;;-144.99;50.62;52211.66;5053015;28;20442;-79
2022/10/09 09:27:19;;;;;;;;;;;;;;;-144.99;49.26;52211.66;5045991;28;19944;-81
2022/10/09 09:29:48;;;;;;;;;;;;;;;-144.99;48.50;52195.34;5059655;28;19935;-82
2022/10/09 09:32:17;;;;;;;;;;;;;;;-144.99;49.08;52183.13;5068837;28;19929;-80
2022/10/09 09:34:44;;;;;;;;;;;;;;;-144.99;48.73;52174.97;5058086;28;19932;-80
2022/10/09 09:37:11;;;;;;;;;;;;;;;-144.99;46.82;52201.47;5063686;28;19932;-80
2022/10/09 09:39:39;;;;;;;;;;;;;;;-144.99;46.11;52203.50;5082164;28;19948;-82
2022/10/09 09:42:12;;;;;;;;;;;;;;;-144.99;44.29;52138.28;5075773;28;19967;-79
2022/10/09 09:44:41;;;;;;;;;;;;;;;-144.99;43.39;52191.28;5078351;28;19924;-81
2022/10/09 09:47:12;;;;;;;;;;;;;;;-144.99;43.64;52170.91;5073894;28;19924;-79
2022/10/09 09:49:38;;;;;;;;;;;;;;;-144.99;43.02;52174.97;5056848;28;19932;-76
2022/10/09 09:52:07;;;;;;;;;;;;;;;-144.99;42.28;52170.91;5051544;28;19926;-78
2022/10/09 09:54:34;;;;;;;;;;;;;;;-144.99;42.34;52158.66;5051927;28;20380;-83
2022/10/09 09:57:10;;;;;;;;;;;;;;;-144.99;41.33;52158.66;4343736;28;10000729;-81
2022/10/09 09:59:38;;;;;;;;;;;;;;;-144.99;40.97;52154.59;5048216;28;19932;-79
2022/10/09 10:02:11;;;;;;;;;;;;;;;-144.99;41.15;52162.75;5052396;28;19925;-77
2022/10/09 10:04:37;;;;;;;;;;;;;;;-144.99;41.43;52162.75;5042808;28;19951;-79
2022/10/09 10:07:04;;;;;;;;;;;;;;;-144.99;41.16;52146.44;5056237;28;19935;-80
2022/10/09 10:09:31;;;;;;;;;;;;;;;-144.99;41.34;52170.91;5066439;28;20015;-80
2022/10/09 10:11:58;;;;;;;;;;;;;;;-144.99;40.47;52130.13;5051985;28;19928;-79
2022/10/09 10:14:27;;;;;;;;;;;;;;;-144.99;40.07;52113.84;5050104;28;19925;-79
2022/10/09 10:16:54;;;;;;;;;;;;;;;-144.99;39.77;52115.88;5051314;28;20382;-78
2022/10/09 10:19:22;;;;;;;;;;;;;;;-144.99;39.59;52089.38;5050328;28;20403;-77
2022/10/09 10:21:54;;;;;;;;;;;;;;;-144.99;39.46;52058.81;5052777;28;20289;-79
2022/10/09 10:24:22;;;;;;;;;;;;;;;-144.99;39.13;52036.38;5049312;28;19933;-79
2022/10/09 10:26:52;;;;;;;;;;;;;;;-144.99;38.83;52048.63;5052374;28;19924;-80
2022/10/09 10:29:19;;;;;;;;;;;;;;;-144.99;38.36;52081.22;5052003;28;19929;-77
2022/10/09 10:31:51;;;;;;;;;;;;;;;-144.99;38.13;52091.41;5055788;28;19929;-84
2022/10/09 10:34:21;;;;;;;;;;;;;;;-144.99;38.32;52040.47;5065710;28;20027;-80
2022/10/09 10:36:48;;;;;;;;;;;;;;;-144.99;38.11;52062.88;5067215;28;19931;-77
2022/10/09 10:39:21;;;;;;;;;;;;;;;-144.99;38.20;52166.81;5051945;28;20019;-77
2022/10/09 10:41:49;;;;;;;;;;;;;;;-144.99;37.87;52040.47;5064671;28;20154;-77
2022/10/09 10:44:21;;;;;;;;;;;;;;;-144.99;38.05;52016.00;5052467;28;19929;-77
2022/10/09 10:46:53;;;;;;;;;;;;;;;-144.99;37.52;52032.31;5052245;28;19935;-78
2022/10/09 10:49:20;;;;;;;;;;;;;;;-144.99;37.06;52024.16;5044185;28;20384;-80
2022/10/09 10:51:52;;;;;;;;;;;;;;;-144.99;37.02;52044.53;5047729;28;19925;-79
2022/10/09 10:54:36;;;;;;;;;;;;;;;-144.99;37.49;52044.53;5049160;28;19935;-81
2022/10/09 10:57:14;;;;;;;;;;;;;;;-144.99;37.91;52044.53;5050122;28;19929;-78
2022/10/09 10:59:44;;;;;;;;;;;;;;;-144.99;38.36;52089.38;5047416;28;20400;-80
2022/10/09 11:02:23;;;;;;;;;;;;;;;-144.99;38.15;52121.97;5042107;28;19928;-80
2022/10/09 11:04:54;;;;;;;;;;;;;;;-144.99;38.07;52056.78;5055506;28;19935;-79
2022/10/09 11:07:22;;;;;;;;;;;;;;;-144.99;38.04;52056.78;5053414;28;19931;-79
2022/10/09 11:09:57;;;;;;;;;;;;;;;-144.99;37.36;52036.38;5049726;28;19964;-83
2022/10/09 11:12:27;;;;;;;;;;;;;;;-144.99;36.96;52036.38;5052491;28;19937;-81
2022/10/09 11:15:01;;;;;;;;;;;;;;;-144.99;37.94;52073.06;5064038;28;19929;-80
2022/10/09 11:17:35;;;;;;;;;;;;;;;-144.99;37.76;52032.31;5060008;28;19956;-79
2022/10/09 11:20:20;;;;;;;;;;;;;;;-144.99;37.40;51999.69;5060834;28;20015;-79
2022/10/09 11:22:56;;;;;;;;;;;;;;;-144.99;35.61;51942.63;5047020;28;20392;-81
2022/10/09 11:25:28;;;;;;;;;;;;;;;-144.99;35.78;52052.69;5067502;28;19925;-79
2022/10/09 11:27:57;;;;;;;;;;;;;;;-144.99;35.95;52032.31;5069719;28;19951;-83
2022/10/09 11:30:25;;;;;;;;;;;;;;;-144.99;35.50;52024.16;5078425;28;19928;-83
2022/10/09 11:32:55;;;;;;;;;;;;;;;-144.99;35.47;52028.22;5067387;28;19959;-80
2022/10/09 11:35:23;;;;;;;;;;;;;;;-144.99;35.15;51979.31;5061625;28;20384;-79
2022/10/09 11:37:56;;;;;;;;;;;;;;;-144.99;34.41;52007.84;5052887;28;20387;-80
2022/10/09 11:40:25;;;;;;;;;;;;;;;-144.99;34.17;51944.69;5054684;28;20326;-83
2022/10/09 11:42:55;;;;;;;;;;;;;;;-144.99;33.50;51979.31;5056333;28;19935;-79
2022/10/09 11:45:25;;;;;;;;;;;;;;;-144.99;33.63;52040.47;5062535;28;20318;-80
2022/10/09 11:47:56;;;;;;;;;;;;;;;-144.99;34.41;51999.69;5057015;28;19931;-81
2022/10/09 11:50:39;;;;;;;;;;;;;;;-144.99;33.58;51987.47;5050429;28;20296;-78
2022/10/09 11:53:08;;;;;;;;;;;;;;;-144.99;34.12;52142.38;5050886;28;19932;-78
2022/10/09 11:55:35;;;;;;;;;;;;;;;-144.99;35.27;52113.84;5061290;28;20423;-80
2022/10/09 11:58:13;;;;;;;;;;;;;;;-144.99;36.11;52164.78;5059651;28;20035;-78
2022/10/09 12:00:40;;;;;;;;;;;;;;;-144.99;36.01;52117.91;5051864;28;20319;-79
2022/10/09 12:03:22;;;;;;;;;;;;;;;-144.99;35.75;52077.16;5060779;28;20445;-80
2022/10/09 12:05:49;;;;;;;;;;;;;;;-144.99;35.77;52020.09;5040738;28;19929;-79
2022/10/09 12:08:16;;;;;;;;;;;;;;;-144.99;35.58;52066.97;5053518;28;19947;-81
2022/10/09 12:10:46;;;;;;;;;;;;;;;-144.99;35.46;52052.69;5034834;28;19929;-78
2022/10/09 12:13:27;;;;;;;;;;;;;;;-144.99;34.92;52007.84;5050969;28;19948;-80
2022/10/09 12:15:54;;;;;;;;;;;;;;;-144.99;35.05;52022.13;5055188;28;20954;-79
2022/10/09 12:18:25;;;;;;;;;;;;;;;-144.99;34.66;52073.06;5050947;28;19929;-82
2022/10/09 12:20:53;;;;;;;;;;;;;;;-144.99;34.59;52040.47;5053499;28;19928;-83
2022/10/09 12:23:21;;;;;;;;;;;;;;;-144.99;34.33;52162.75;5083250;28;20058;-84
2022/10/09 12:25:47;;;;;;;;;;;;;;;-144.99;35.30;52232.03;5083191;28;20123;-84